Time;durP1;ratioP1;P1;durP2;ratioP2;P2;SDS_P1;SDS_P2;PMS_P1;PMS_P2;Temp;Humidity;BMP_temperature;BMP_pressure;BME280_temperature;BME280_humidity;BME280_pressure;Samples;Min_cycle;Max_cycle;Signal;HPM_P1;HPM_P2
2023/05/16 00:00:54;;;;;;;6.82;2.60;;;10.30;88.00;;;;;;5046835;28;20064;-79
2023/05/16 00:03:20;;;;;;;10.32;3.05;;;10.30;88.20;;;;;;5046476;28;20035;-79
2023/05/16 00:05:45;;;;;;;7.43;2.10;;;10.30;88.20;;;;;;5041572;28;20071;-79
2023/05/16 00:08:11;;;;;;;8.00;2.40;;;10.20;88.10;;;;;;5048886;28;20372;-78
2023/05/16 00:10:37;;;;;;;4.95;2.53;;;10.30;88.20;;;;;;5047298;28;20032;-78
2023/05/16 00:13:02;;;;;;;8.13;2.13;;;10.30;88.00;;;;;;5049480;28;20044;-79
2023/05/16 00:15:28;;;;;;;7.40;2.03;;;10.30;87.60;;;;;;5043370;28;20037;-78
2023/05/16 00:17:58;;;;;;;4.88;1.85;;;10.30;87.90;;;;;;5048699;28;20103;-78
2023/05/16 00:20:25;;;;;;;9.73;1.70;;;10.30;87.60;;;;;;5047149;28;20036;-78
2023/05/16 00:22:51;;;;;;;7.28;1.80;;;10.30;87.60;;;;;;5040087;28;20037;-78
2023/05/16 00:25:17;;;;;;;8.30;2.50;;;10.30;87.50;;;;;;5046309;28;20052;-79
2023/05/16 00:27:42;;;;;;;6.28;2.00;;;10.30;87.50;;;;;;5045624;28;20076;-79
2023/05/16 00:30:08;;;;;;;8.13;2.00;;;10.40;87.20;;;;;;5049425;28;20361;-78
2023/05/16 00:32:35;;;;;;;11.82;1.70;;;10.40;87.20;;;;;;5042082;28;20039;-79
2023/05/16 00:35:00;;;;;;;7.80;1.77;;;10.30;87.30;;;;;;5042973;28;22229;-78
2023/05/16 00:37:26;;;;;;;6.18;2.20;;;10.40;87.20;;;;;;5039464;28;20033;-78
2023/05/16 00:39:52;;;;;;;10.27;2.53;;;10.40;87.20;;;;;;5054876;28;20469;-79
2023/05/16 00:42:20;;;;;;;5.55;2.38;;;10.30;87.30;;;;;;5047781;28;20033;-79
2023/05/16 00:44:47;;;;;;;6.65;1.92;;;10.30;87.40;;;;;;5053412;28;20040;-79
2023/05/16 00:47:12;;;;;;;4.45;1.95;;;10.30;87.60;;;;;;5048072;28;20033;-78
2023/05/16 00:49:38;;;;;;;8.23;2.03;;;10.30;87.80;;;;;;5043405;28;20827;-79
2023/05/16 00:52:04;;;;;;;6.10;2.00;;;10.30;87.90;;;;;;5047680;28;20063;-79
2023/05/16 00:54:30;;;;;;;6.35;2.33;;;10.30;87.70;;;;;;5041802;28;20461;-78
2023/05/16 00:56:56;;;;;;;9.10;2.08;;;10.30;87.90;;;;;;5047365;28;20091;-79
2023/05/16 00:59:23;;;;;;;12.60;2.08;;;10.30;87.80;;;;;;5044896;28;20028;-78
2023/05/16 01:01:50;;;;;;;8.77;2.00;;;10.30;88.00;;;;;;5041404;28;20407;-79
2023/05/16 01:04:16;;;;;;;10.02;1.95;;;10.30;88.10;;;;;;5048251;28;20036;-79
2023/05/16 01:06:42;;;;;;;9.15;2.30;;;10.30;87.80;;;;;;5045808;28;20017;-79
2023/05/16 01:09:09;;;;;;;6.30;2.17;;;10.30;88.10;;;;;;5042655;28;20033;-78
2023/05/16 01:11:56;;;;;;;8.02;1.88;;;10.40;88.00;;;;;;5042662;28;20044;-78
2023/05/16 01:14:51;;;;;;;9.48;2.17;;;10.40;88.10;;;;;;5036305;28;20653;-78
2023/05/16 01:17:52;;;;;;;7.35;2.40;;;10.30;88.20;;;;;;5049241;28;20470;-78
2023/05/16 01:20:39;;;;;;;6.50;2.65;;;10.30;88.30;;;;;;5038198;28;20258;-79
2023/05/16 01:23:30;;;;;;;9.50;2.45;;;10.30;88.40;;;;;;5047869;28;20033;-79
2023/05/16 01:26:08;;;;;;;9.45;3.22;;;10.30;88.50;;;;;;5043589;28;20475;-78
2023/05/16 01:28:35;;;;;;;6.20;2.42;;;10.30;89.00;;;;;;5048061;28;20439;-79
2023/05/16 01:31:00;;;;;;;7.20;2.30;;;10.20;89.20;;;;;;5051549;28;20056;-78
2023/05/16 01:33:26;;;;;;;7.40;1.75;;;10.20;89.40;;;;;;5044449;28;20017;-78
2023/05/16 01:36:01;;;;;;;6.13;1.83;;;10.10;89.70;;;;;;5063190;28;20033;-78
2023/05/16 01:38:37;;;;;;;5.13;1.77;;;10.10;89.90;;;;;;5042876;28;20029;-79
2023/05/16 01:41:11;;;;;;;8.85;1.92;;;10.10;90.30;;;;;;5054912;28;20040;-78
2023/05/16 01:43:47;;;;;;;8.35;2.03;;;10.00;90.90;;;;;;5050274;28;20028;-79
2023/05/16 01:46:15;;;;;;;11.38;2.00;;;10.00;91.30;;;;;;5065163;28;20028;-79
2023/05/16 01:48:51;;;;;;;12.32;2.00;;;10.00;91.10;;;;;;5056413;28;20021;-79
2023/05/16 01:51:20;;;;;;;11.00;2.08;;;9.90;90.80;;;;;;5042117;28;20040;-79
2023/05/16 01:53:47;;;;;;;10.35;2.08;;;9.90;90.60;;;;;;5069936;28;20385;-79
2023/05/16 01:56:15;;;;;;;12.48;2.22;;;9.90;90.60;;;;;;5049746;28;20107;-78
2023/05/16 01:58:41;;;;;;;8.98;1.95;;;9.80;90.50;;;;;;5051424;28;20476;-79
2023/05/16 02:01:07;;;;;;;8.00;1.90;;;9.80;90.40;;;;;;5050688;28;20033;-79
2023/05/16 02:03:33;;;;;;;8.23;1.70;;;9.90;90.50;;;;;;5051771;28;20373;-79
2023/05/16 02:05:59;;;;;;;13.32;2.28;;;9.80;90.10;;;;;;5052283;28;20104;-78
2023/05/16 02:08:26;;;;;;;6.30;1.83;;;9.90;89.80;;;;;;5055323;28;20033;-79
2023/05/16 02:10:52;;;;;;;9.43;1.75;;;9.90;89.30;;;;;;5069608;28;20098;-78
2023/05/16 02:13:18;;;;;;;8.25;2.25;;;9.90;89.30;;;;;;5067049;28;20037;-78
2023/05/16 02:15:43;;;;;;;13.02;1.90;;;9.90;88.70;;;;;;5042866;28;20021;-78
2023/05/16 02:18:09;;;;;;;10.13;2.00;;;9.90;88.60;;;;;;5052670;28;20029;-79
2023/05/16 02:20:35;;;;;;;8.68;1.90;;;9.90;88.60;;;;;;5044904;28;20022;-79
2023/05/16 02:23:02;;;;;;;7.68;1.48;;;9.90;88.20;;;;;;5046204;28;20091;-79
2023/05/16 02:25:27;;;;;;;11.05;1.73;;;9.90;88.10;;;;;;5054612;28;20041;-79
2023/05/16 02:27:53;;;;;;;12.23;2.13;;;9.90;87.60;;;;;;5041131;28;20107;-80
2023/05/16 02:30:18;;;;;;;8.90;1.90;;;9.90;87.50;;;;;;5049136;28;20397;-79
2023/05/16 02:32:44;;;;;;;12.82;2.20;;;9.80;87.50;;;;;;5047554;28;20075;-78
2023/05/16 02:35:10;;;;;;;11.65;2.13;;;9.90;87.40;;;;;;5049633;28;20059;-78
2023/05/16 02:37:36;;;;;;;10.20;2.13;;;9.90;87.30;;;;;;5041607;28;20506;-79
2023/05/16 02:40:04;;;;;;;6.85;1.80;;;9.80;87.20;;;;;;5058804;28;20033;-79
2023/05/16 02:42:30;;;;;;;8.27;2.35;;;9.70;87.30;;;;;;5059113;28;20054;-79
2023/05/16 02:44:56;;;;;;;11.85;2.28;;;9.80;87.30;;;;;;5059269;28;20074;-78
2023/05/16 02:47:22;;;;;;;6.25;2.00;;;9.70;86.80;;;;;;5054967;28;20376;-79
2023/05/16 02:49:47;;;;;;;14.98;1.85;;;9.70;86.80;;;;;;5054579;28;20086;-79
2023/05/16 02:52:13;;;;;;;13.73;2.50;;;9.70;86.90;;;;;;5047046;28;20571;-78
2023/05/16 02:54:38;;;;;;;10.60;2.30;;;9.80;86.80;;;;;;5058036;28;20079;-79
2023/05/16 02:57:04;;;;;;;11.30;2.33;;;9.70;86.80;;;;;;5058287;28;20025;-78
2023/05/16 02:59:29;;;;;;;13.90;2.25;;;9.80;86.70;;;;;;5057008;28;20024;-78
2023/05/16 03:01:55;;;;;;;15.13;2.70;;;9.70;86.90;;;;;;5053512;28;20030;-79
2023/05/16 03:04:21;;;;;;;16.77;2.47;;;9.70;87.00;;;;;;5051350;28;20032;-79
2023/05/16 03:06:47;;;;;;;13.48;2.42;;;9.70;87.20;;;;;;5050710;28;20025;-78
2023/05/16 03:09:12;;;;;;;14.40;2.95;;;9.70;87.00;;;;;;5055886;28;20388;-79
2023/05/16 03:11:38;;;;;;;14.15;2.60;;;9.60;87.20;;;;;;5071187;28;20463;-77
2023/05/16 03:14:04;;;;;;;13.07;2.97;;;9.60;87.20;;;;;;5065662;28;20526;-76
2023/05/16 03:16:29;;;;;;;15.73;2.50;;;9.60;87.50;;;;;;5065762;28;20051;-76
2023/05/16 03:18:55;;;;;;;15.57;3.33;;;9.60;87.30;;;;;;5053251;28;20036;-76
2023/05/16 03:21:21;;;;;;;9.75;2.50;;;9.60;87.40;;;;;;5053170;28;20028;-76
2023/05/16 03:23:46;;;;;;;12.23;2.50;;;9.60;87.50;;;;;;5052307;28;20024;-77
2023/05/16 03:26:12;;;;;;;12.45;2.85;;;9.60;87.60;;;;;;5058197;28;20431;-78
2023/05/16 03:28:37;;;;;;;11.60;2.50;;;9.60;87.40;;;;;;5053343;28;20086;-76
2023/05/16 03:31:03;;;;;;;13.70;2.72;;;9.60;87.40;;;;;;5052357;28;20108;-77
2023/05/16 03:33:28;;;;;;;8.57;2.60;;;9.60;87.50;;;;;;5042587;28;20416;-76
2023/05/16 03:35:55;;;;;;;15.93;2.80;;;9.60;87.30;;;;;;5065015;28;20044;-77
2023/05/16 03:38:20;;;;;;;13.10;2.72;;;9.60;87.50;;;;;;5062990;28;20035;-77
2023/05/16 03:40:46;;;;;;;10.85;2.40;;;9.60;87.50;;;;;;5055326;28;20028;-76
2023/05/16 03:43:11;;;;;;;15.23;2.45;;;9.60;87.20;;;;;;5067947;28;20028;-77
2023/05/16 03:45:37;;;;;;;21.17;3.47;;;9.60;87.10;;;;;;5059443;28;20376;-77
2023/05/16 03:48:03;;;;;;;17.77;2.70;;;9.50;87.00;;;;;;5061600;28;20037;-77
2023/05/16 03:50:28;;;;;;;17.83;3.17;;;9.50;86.80;;;;;;5048895;28;20028;-76
2023/05/16 03:52:54;;;;;;;11.93;2.20;;;9.40;86.00;;;;;;5057501;28;20043;-76
2023/05/16 03:55:20;;;;;;;9.10;2.17;;;9.40;85.90;;;;;;5048935;28;20029;-76
2023/05/16 03:57:46;;;;;;;13.88;2.47;;;9.30;86.00;;;;;;5051072;28;20045;-77
2023/05/16 04:00:13;;;;;;;18.90;2.78;;;9.30;85.90;;;;;;5047290;28;20028;-77
2023/05/16 04:02:39;;;;;;;18.85;2.92;;;9.40;85.90;;;;;;5049889;28;20068;-77
2023/05/16 04:05:07;;;;;;;13.68;2.15;;;9.40;85.70;;;;;;5051652;28;20025;-78
2023/05/16 04:07:32;;;;;;;14.10;2.45;;;9.30;85.30;;;;;;5043683;28;20520;-77
2023/05/16 04:09:58;;;;;;;13.90;2.17;;;9.20;85.30;;;;;;5051929;28;20058;-77
2023/05/16 04:12:23;;;;;;;12.85;2.03;;;9.10;85.10;;;;;;5054867;28;20045;-76
2023/05/16 04:14:49;;;;;;;14.13;2.30;;;9.10;85.20;;;;;;5041575;28;20036;-77
2023/05/16 04:17:14;;;;;;;14.07;2.35;;;9.10;85.30;;;;;;5049317;28;20059;-76
2023/05/16 04:19:40;;;;;;;12.90;2.20;;;9.00;84.70;;;;;;5035570;28;20444;-76
2023/05/16 04:22:06;;;;;;;15.85;3.05;;;9.00;84.50;;;;;;5048497;28;20469;-78
2023/05/16 04:24:32;;;;;;;15.48;2.53;;;9.00;84.20;;;;;;5044617;28;20116;-79
2023/05/16 04:26:57;;;;;;;14.10;2.08;;;9.00;84.30;;;;;;5046700;28;20218;-80
2023/05/16 04:29:23;;;;;;;18.38;2.55;;;9.00;84.00;;;;;;5050850;28;20017;-76
2023/05/16 04:31:48;;;;;;;16.13;2.28;;;9.00;84.00;;;;;;5050473;28;20036;-75
2023/05/16 04:34:14;;;;;;;13.93;2.42;;;9.00;84.10;;;;;;5042824;28;20029;-74
2023/05/16 04:36:40;;;;;;;13.43;1.92;;;8.90;84.00;;;;;;5052517;28;20029;-75
2023/05/16 04:39:07;;;;;;;7.78;1.98;;;9.00;83.40;;;;;;5047770;28;20484;-74
2023/05/16 04:41:32;;;;;;;11.13;2.20;;;9.00;83.20;;;;;;5054009;28;20103;-75
2023/05/16 04:44:05;;;;;;;10.07;1.80;;;9.10;82.60;;;;;;5046255;28;20557;-76
2023/05/16 04:46:30;;;;;;;13.27;2.33;;;9.10;82.30;;;;;;5039503;28;20013;-76
2023/05/16 04:48:56;;;;;;;19.02;2.67;;;9.20;82.20;;;;;;5045415;28;20479;-72
2023/05/16 04:51:21;;;;;;;10.82;1.92;;;9.30;81.70;;;;;;5052897;28;20426;-72
2023/05/16 04:53:47;;;;;;;14.75;1.83;;;9.30;81.40;;;;;;5045979;28;20056;-72
2023/05/16 04:56:12;;;;;;;13.40;1.75;;;9.30;81.50;;;;;;5049497;28;20112;-72
2023/05/16 04:58:38;;;;;;;10.85;1.92;;;9.30;81.50;;;;;;5048847;28;20032;-73
2023/05/16 05:01:03;;;;;;;17.67;2.22;;;9.40;81.30;;;;;;5045587;28;20133;-72
2023/05/16 05:03:29;;;;;;;10.27;1.90;;;9.40;81.10;;;;;;5051525;28;20078;-72
2023/05/16 05:05:54;;;;;;;9.98;2.10;;;9.50;81.00;;;;;;5048922;28;20102;-72
2023/05/16 05:08:20;;;;;;;10.18;1.60;;;9.50;80.70;;;;;;5047801;28;20420;-72
2023/05/16 05:10:46;;;;;;;11.88;1.83;;;9.60;80.60;;;;;;5053594;28;20068;-73
2023/05/16 05:13:11;;;;;;;15.50;2.17;;;9.60;80.40;;;;;;5050210;28;20414;-72
2023/05/16 05:15:37;;;;;;;11.68;1.75;;;9.60;80.00;;;;;;5054284;28;20052;-72
2023/05/16 05:18:03;;;;;;;16.33;2.20;;;9.60;79.20;;;;;;5051892;28;20021;-74
2023/05/16 05:20:28;;;;;;;9.30;1.85;;;9.70;79.70;;;;;;5046271;28;20346;-73
2023/05/16 05:22:54;;;;;;;9.20;1.92;;;9.60;78.70;;;;;;5046016;28;20025;-75
2023/05/16 05:25:19;;;;;;;12.23;1.88;;;9.70;78.80;;;;;;5046211;28;20049;-73
2023/05/16 05:27:45;;;;;;;14.98;2.35;;;9.70;79.00;;;;;;5049189;28;20052;-74
2023/05/16 05:30:10;;;;;;;13.13;2.65;;;9.70;78.80;;;;;;5050581;28;20063;-72
2023/05/16 05:32:36;;;;;;;13.85;2.15;;;9.60;78.80;;;;;;5047918;28;20037;-71
2023/05/16 05:35:02;;;;;;;9.20;2.03;;;9.60;78.80;;;;;;5051220;28;20098;-72
2023/05/16 05:37:28;;;;;;;10.50;2.28;;;9.50;78.50;;;;;;5049861;28;20025;-70
2023/05/16 05:39:54;;;;;;;17.42;2.22;;;9.60;78.80;;;;;;5049588;28;20075;-71
2023/05/16 05:42:20;;;;;;;9.80;1.52;;;9.70;78.70;;;;;;5050613;28;20033;-71
2023/05/16 05:44:45;;;;;;;11.15;1.90;;;9.70;78.10;;;;;;5049797;28;20032;-71
2023/05/16 05:47:11;;;;;;;11.63;2.22;;;9.70;78.10;;;;;;5042691;28;20025;-71
2023/05/16 05:49:37;;;;;;;16.00;2.63;;;9.90;78.30;;;;;;5038306;28;20378;-71
2023/05/16 05:52:02;;;;;;;6.95;2.08;;;9.80;77.50;;;;;;5045979;28;24080;-71
2023/05/16 05:54:29;;;;;;;13.93;2.00;;;9.80;76.90;;;;;;5047452;28;20025;-70
2023/05/16 05:56:56;;;;;;;8.60;1.70;;;10.00;76.40;;;;;;5052328;28;20124;-74
2023/05/16 05:59:22;;;;;;;14.95;2.08;;;10.10;75.90;;;;;;5056588;28;20051;-71
2023/05/16 06:01:51;;;;;;;11.65;1.90;;;10.10;75.60;;;;;;5049161;28;20051;-74
2023/05/16 06:04:17;;;;;;;12.25;2.03;;;10.20;75.60;;;;;;5055225;28;20065;-72
2023/05/16 06:06:43;;;;;;;14.23;1.63;;;10.20;75.60;;;;;;5050247;28;20028;-70
2023/05/16 06:09:08;;;;;;;11.93;1.90;;;10.50;75.10;;;;;;5040914;28;20028;-71
2023/05/16 06:11:34;;;;;;;13.02;1.75;;;10.50;74.70;;;;;;5041297;28;24494;-71
2023/05/16 06:14:02;;;;;;;16.08;2.20;;;10.30;75.80;;;;;;5045062;28;20041;-73
2023/05/16 06:16:27;;;;;;;13.27;2.58;;;10.30;75.30;;;;;;5041840;28;20436;-71
2023/05/16 06:18:53;;;;;;;9.25;1.67;;;10.40;73.60;;;;;;5049322;28;20033;-74
2023/05/16 06:21:18;;;;;;;9.05;1.70;;;10.60;74.40;;;;;;5044270;28;20102;-70
2023/05/16 06:23:44;;;;;;;10.20;1.98;;;10.90;74.20;;;;;;5059740;28;20741;-71
2023/05/16 06:26:09;;;;;;;11.23;1.90;;;10.90;73.40;;;;;;5064924;28;20049;-71
2023/05/16 06:28:35;;;;;;;11.88;1.92;;;11.20;73.60;;;;;;5046064;28;20133;-72
2023/05/16 06:31:00;;;;;;;8.52;2.00;;;11.10;72.90;;;;;;5045263;28;20381;-72
2023/05/16 06:33:26;;;;;;;9.30;1.63;;;10.80;71.50;;;;;;5046352;28;20108;-72
2023/05/16 06:35:51;;;;;;;17.35;1.90;;;10.40;72.30;;;;;;5043389;28;20033;-72
2023/05/16 06:38:18;;;;;;;9.40;1.67;;;10.50;72.50;;;;;;5041974;28;20029;-73
2023/05/16 06:40:44;;;;;;;7.43;1.38;;;10.40;72.30;;;;;;5048603;28;20116;-73
2023/05/16 06:43:10;;;;;;;11.82;1.55;;;10.60;70.80;;;;;;5042186;28;20112;-74
2023/05/16 06:45:36;;;;;;;11.23;1.73;;;10.80;70.30;;;;;;5042852;28;20441;-73
2023/05/16 06:48:01;;;;;;;7.85;1.60;;;11.00;70.10;;;;;;5048743;28;20072;-73
2023/05/16 06:50:27;;;;;;;10.88;1.92;;;11.10;70.20;;;;;;5042758;28;20025;-75
2023/05/16 06:52:52;;;;;;;10.98;1.48;;;11.50;68.00;;;;;;5047992;28;20043;-73
2023/05/16 06:55:18;;;;;;;8.32;1.50;;;11.40;66.80;;;;;;5047722;28;20103;-73
2023/05/16 06:57:43;;;;;;;6.57;1.60;;;11.40;67.10;;;;;;5045832;28;20022;-73
2023/05/16 07:00:09;;;;;;;6.43;1.65;;;11.80;66.20;;;;;;5046869;28;20045;-73
2023/05/16 07:02:35;;;;;;;8.50;1.55;;;11.90;64.30;;;;;;5048815;28;20024;-73
2023/05/16 07:05:00;;;;;;;10.38;1.55;;;11.80;64.40;;;;;;5043781;28;20060;-73
2023/05/16 07:07:26;;;;;;;8.88;1.70;;;11.60;64.70;;;;;;5046478;28;20470;-73
2023/05/16 07:09:51;;;;;;;6.93;1.48;;;11.60;64.40;;;;;;5042537;28;20060;-73
2023/05/16 07:12:17;;;;;;;5.75;1.35;;;12.20;65.40;;;;;;5052337;28;20124;-73
2023/05/16 07:14:42;;;;;;;7.00;1.58;;;11.80;68.50;;;;;;5052047;28;20020;-72
2023/05/16 07:17:09;;;;;;;10.40;1.58;;;11.50;69.70;;;;;;5051580;28;20086;-73
2023/05/16 07:19:34;;;;;;;10.90;1.55;;;11.20;69.50;;;;;;5060828;28;20484;-73
2023/05/16 07:22:00;;;;;;;8.52;1.95;;;11.10;70.00;;;;;;5037170;28;20033;-72
2023/05/16 07:24:25;;;;;;;10.13;1.73;;;11.40;69.70;;;;;;5043262;28;20068;-72
2023/05/16 07:26:51;;;;;;;9.93;1.38;;;11.60;69.60;;;;;;5045307;28;20056;-73
2023/05/16 07:29:17;;;;;;;8.95;1.75;;;11.80;68.20;;;;;;5046547;28;20029;-75
2023/05/16 07:31:42;;;;;;;10.23;2.03;;;11.50;69.10;;;;;;5045479;28;20029;-73
2023/05/16 07:34:09;;;;;;;10.55;1.80;;;11.30;69.60;;;;;;5053408;28;20094;-73
2023/05/16 07:36:35;;;;;;;11.43;1.45;;;11.10;70.20;;;;;;5046103;28;20021;-73
2023/05/16 07:39:00;;;;;;;10.15;1.65;;;11.10;68.60;;;;;;5046859;28;20036;-73
2023/05/16 07:41:26;;;;;;;6.95;1.30;;;11.30;68.50;;;;;;5051102;28;20449;-73
2023/05/16 07:43:51;;;;;;;7.70;1.50;;;11.70;66.70;;;;;;5047314;28;20055;-75
2023/05/16 07:46:17;;;;;;;11.73;1.90;;;12.50;66.30;;;;;;5048340;28;20116;-74
2023/05/16 07:48:42;;;;;;;10.75;1.55;;;12.70;64.60;;;;;;5045732;28;20369;-73
2023/05/16 07:51:08;;;;;;;14.23;1.83;;;12.90;65.00;;;;;;5044989;28;20044;-72
2023/05/16 07:53:33;;;;;;;7.80;1.48;;;12.60;64.80;;;;;;5040847;28;20413;-73
2023/05/16 07:55:59;;;;;;;13.13;2.17;;;12.60;62.30;;;;;;5041583;28;20031;-73
2023/05/16 07:58:24;;;;;;;9.02;1.33;;;12.80;62.30;;;;;;5035634;28;20116;-75
2023/05/16 08:00:50;;;;;;;9.07;1.60;;;13.10;61.80;;;;;;5036565;28;20028;-73
2023/05/16 08:03:15;;;;;;;12.73;1.58;;;13.50;61.40;;;;;;5046328;28;20032;-73
2023/05/16 08:05:41;;;;;;;9.40;1.20;;;13.10;61.20;;;;;;5044677;28;20033;-76
2023/05/16 08:08:07;;;;;;;12.30;1.48;;;12.70;62.30;;;;;;5040196;28;20364;-73
2023/05/16 08:10:32;;;;;;;9.68;1.42;;;12.10;64.30;;;;;;5040631;28;20025;-73
2023/05/16 08:12:58;;;;;;;7.30;1.58;;;12.50;63.30;;;;;;5045692;28;20454;-73
2023/05/16 08:15:25;;;;;;;4.93;0.98;;;12.80;62.30;;;;;;5043505;28;20043;-73
2023/05/16 08:17:50;;;;;;;5.90;1.02;;;13.20;62.60;;;;;;5038580;28;20461;-73
2023/05/16 08:20:16;;;;;;;6.25;1.20;;;13.20;59.30;;;;;;5048724;28;20090;-72
2023/05/16 08:22:41;;;;;;;7.03;1.67;;;13.50;57.80;;;;;;5047515;28;20029;-73
2023/05/16 08:25:07;;;;;;;6.32;1.50;;;13.80;56.60;;;;;;5045452;28;20492;-73
2023/05/16 08:27:33;;;;;;;9.30;1.60;;;14.10;55.30;;;;;;5035681;28;20068;-73
2023/05/16 08:29:59;;;;;;;8.23;1.30;;;13.90;57.10;;;;;;5048025;28;20028;-73
2023/05/16 08:32:24;;;;;;;4.53;0.85;;;13.10;61.10;;;;;;5041823;28;20036;-74
2023/05/16 08:34:50;;;;;;;8.80;1.42;;;12.10;63.40;;;;;;5048434;28;20017;-73
2023/05/16 08:37:15;;;;;;;5.93;1.05;;;12.10;64.00;;;;;;5049185;28;20384;-74
2023/05/16 08:39:41;;;;;;;7.78;1.40;;;11.70;63.70;;;;;;5052103;28;20116;-73
2023/05/16 08:42:07;;;;;;;5.63;1.20;;;11.70;65.70;;;;;;5056637;28;20056;-73
2023/05/16 08:44:33;;;;;;;5.65;1.27;;;12.10;64.30;;;;;;5045427;28;20024;-72
2023/05/16 08:47:10;;;;;;;6.30;1.35;;;12.30;62.10;;;;;;5057563;28;20036;-73
2023/05/16 08:49:37;;;;;;;4.93;1.38;;;12.60;61.80;;;;;;5051490;28;20035;-73
2023/05/16 08:52:07;;;;;;;6.75;1.23;;;12.70;60.30;;;;;;5046845;28;20063;-73
2023/05/16 08:54:33;;;;;;;5.93;1.20;;;12.80;60.30;;;;;;5049195;28;20369;-73
2023/05/16 08:57:00;;;;;;;8.93;1.60;;;13.30;59.70;;;;;;5056095;28;20039;-73
2023/05/16 08:59:25;;;;;;;6.55;1.10;;;13.70;60.10;;;;;;5042061;28;20099;-74
2023/05/16 09:01:51;;;;;;;8.63;1.15;;;13.80;58.70;;;;;;5040733;28;20103;-73
2023/05/16 09:04:17;;;;;;;10.65;1.30;;;14.50;58.00;;;;;;5044361;28;20049;-73
2023/05/16 09:06:42;;;;;;;7.70;1.65;;;14.30;58.30;;;;;;5055289;28;20025;-73
2023/05/16 09:09:11;;;;;;;8.23;1.48;;;13.80;58.20;;;;;;5051979;28;20469;-73
2023/05/16 09:11:37;;;;;;;8.85;1.33;;;13.30;58.80;;;;;;5053846;28;20063;-73
2023/05/16 09:14:04;;;;;;;5.80;1.13;;;12.90;60.10;;;;;;5049336;28;20457;-73
2023/05/16 09:16:30;;;;;;;7.38;1.30;;;12.60;60.90;;;;;;5049880;28;20451;-73
2023/05/16 09:18:57;;;;;;;7.50;1.25;;;13.10;61.50;;;;;;5046007;28;20025;-73
2023/05/16 09:21:27;;;;;;;11.15;1.70;;;13.40;59.40;;;;;;5048163;28;20065;-73
2023/05/16 09:23:52;;;;;;;5.30;1.00;;;14.10;59.60;;;;;;5047649;28;20075;-73
2023/05/16 09:26:18;;;;;;;7.43;1.17;;;14.20;57.90;;;;;;5051752;28;20028;-73
2023/05/16 09:28:44;;;;;;;5.07;1.02;;;14.30;57.30;;;;;;5048584;28;20024;-74
2023/05/16 09:31:30;;;;;;;6.95;1.35;;;13.80;54.80;;;;;;5053390;28;20115;-73
2023/05/16 09:33:56;;;;;;;6.50;1.15;;;13.70;55.90;;;;;;5045884;28;20344;-73
2023/05/16 09:36:22;;;;;;;5.32;1.33;;;13.30;57.40;;;;;;5049624;28;20084;-75
2023/05/16 09:38:49;;;;;;;4.90;0.90;;;12.50;58.60;;;;;;5053447;28;20123;-73
2023/05/16 09:41:15;;;;;;;7.40;1.10;;;13.10;58.90;;;;;;5050509;28;20098;-72
2023/05/16 09:43:42;;;;;;;4.65;0.90;;;13.20;58.30;;;;;;5051602;28;20057;-72
2023/05/16 09:46:11;;;;;;;8.65;1.25;;;12.70;58.40;;;;;;5063231;28;20029;-73
2023/05/16 09:48:41;;;;;;;8.55;1.40;;;12.50;59.90;;;;;;5050859;28;20467;-73
2023/05/16 09:51:07;;;;;;;7.05;1.27;;;13.20;59.10;;;;;;5054803;28;20457;-72
2023/05/16 09:53:33;;;;;;;6.47;1.25;;;13.50;57.60;;;;;;5067761;28;20033;-73
2023/05/16 09:56:03;;;;;;;6.03;1.33;;;14.20;56.00;;;;;;5066400;28;20194;-72
2023/05/16 09:58:33;;;;;;;5.03;1.10;;;14.30;54.00;;;;;;5048902;28;20033;-72
2023/05/16 10:01:00;;;;;;;5.47;1.17;;;14.50;53.40;;;;;;5051903;28;20028;-73
2023/05/16 10:03:26;;;;;;;6.05;1.10;;;14.90;52.20;;;;;;5047058;28;20301;-72
2023/05/16 10:05:52;;;;;;;5.80;1.23;;;14.80;51.40;;;;;;5048301;28;20025;-73
2023/05/16 10:08:24;;;;;;;4.88;0.90;;;15.40;51.50;;;;;;5051829;28;20083;-71
2023/05/16 10:10:51;;;;;;;4.45;0.85;;;15.60;50.60;;;;;;5049877;28;20029;-74
2023/05/16 10:13:21;;;;;;;3.03;0.90;;;14.50;44.50;;;;;;5058736;28;20072;-74
2023/05/16 10:15:48;;;;;;;6.18;1.02;;;15.10;45.50;;;;;;5049234;28;20461;-74
2023/05/16 10:18:17;;;;;;;8.60;1.38;;;15.30;45.60;;;;;;5043286;28;20362;-73
2023/05/16 10:20:45;;;;;;;7.40;1.40;;;14.60;48.10;;;;;;5054010;28;20461;-72
2023/05/16 10:23:16;;;;;;;6.78;1.30;;;14.30;47.50;;;;;;5053353;28;20029;-73
2023/05/16 10:25:43;;;;;;;5.45;1.15;;;14.40;47.80;;;;;;5053238;28;20043;-73
2023/05/16 10:28:09;;;;;;;5.70;0.90;;;14.90;45.00;;;;;;5051619;28;20112;-73
2023/05/16 10:30:36;;;;;;;4.80;0.90;;;15.00;44.80;;;;;;5052334;28;20541;-74
2023/05/16 10:33:03;;;;;;;5.63;1.17;;;15.20;42.40;;;;;;5050161;28;20029;-73
2023/05/16 10:35:29;;;;;;;6.78;1.02;;;15.60;42.60;;;;;;5051632;28;20373;-73
2023/05/16 10:37:56;;;;;;;5.60;1.02;;;16.30;43.40;;;;;;5045375;28;20488;-74
2023/05/16 10:40:23;;;;;;;6.65;0.80;;;15.70;42.50;;;;;;5059219;28;20029;-74
2023/05/16 10:42:56;;;;;;;6.72;1.00;;;15.50;45.40;;;;;;5053175;28;20104;-73
2023/05/16 10:45:22;;;;;;;5.45;1.10;;;15.10;46.50;;;;;;5052294;28;20032;-73
2023/05/16 10:47:56;;;;;;;9.98;1.77;;;14.50;49.30;;;;;;5051163;28;20032;-73
2023/05/16 10:50:38;;;;;;;5.85;1.35;;;13.50;50.80;;;;;;5041743;28;20025;-72
2023/05/16 10:53:31;;;;;;;3.15;0.80;;;12.90;53.00;;;;;;5053094;28;20056;-72
2023/05/16 10:56:02;;;;;;;5.10;0.93;;;12.80;53.00;;;;;;5050209;28;20029;-74
2023/05/16 10:58:34;;;;;;;6.88;0.93;;;13.00;51.70;;;;;;5050528;28;20024;-73
2023/05/16 11:01:47;;;;;;;4.72;0.80;;;13.80;49.40;;;;;;5057772;28;20062;-74
2023/05/16 11:04:13;;;;;;;6.95;1.35;;;14.80;48.30;;;;;;5046164;28;21290;-73
2023/05/16 11:06:41;;;;;;;10.27;1.38;;;14.90;47.00;;;;;;5055353;28;20053;-73
2023/05/16 11:09:21;;;;;;;6.85;1.60;;;15.30;47.10;;;;;;5052641;28;20036;-73
2023/05/16 11:11:55;;;;;;;5.22;1.15;;;15.10;47.00;;;;;;5050680;28;20029;-74
2023/05/16 11:14:22;;;;;;;9.52;1.58;;;15.50;46.40;;;;;;5046615;28;20033;-73
2023/05/16 11:16:52;;;;;;;8.65;1.45;;;15.50;46.00;;;;;;5051770;28;20481;-77
2023/05/16 11:19:47;;;;;;;7.75;1.55;;;15.50;48.60;;;;;;5045964;28;20020;-74
2023/05/16 11:22:18;;;;;;;6.78;1.40;;;15.80;48.10;;;;;;5045968;28;20086;-73
2023/05/16 11:24:58;;;;;;;5.63;1.38;;;15.00;48.10;;;;;;5052691;28;20132;-73
2023/05/16 11:27:45;;;;;;;6.25;1.45;;;14.20;51.00;;;;;;5042481;28;20024;-73
2023/05/16 11:30:16;;;;;;;8.85;1.80;;;14.20;51.50;;;;;;5045636;28;20476;-74
2023/05/16 11:32:43;;;;;;;8.45;1.15;;;14.10;53.00;;;;;;5042383;28;20082;-74
2023/05/16 11:35:13;;;;;;;5.75;1.05;;;14.40;53.50;;;;;;5054450;28;20055;-73
2023/05/16 11:37:38;;;;;;;6.45;1.10;;;14.30;52.00;;;;;;5050001;28;20371;-73
2023/05/16 11:40:07;;;;;;;5.65;1.05;;;13.80;52.20;;;;;;5070480;28;20028;-73
2023/05/16 11:42:35;;;;;;;4.95;1.13;;;14.80;52.10;;;;;;5056878;28;20032;-73
2023/05/16 11:45:13;;;;;;;9.15;1.35;;;15.00;50.00;;;;;;5064782;28;20029;-73
2023/05/16 11:47:40;;;;;;;5.78;0.90;;;15.30;49.40;;;;;;5049269;28;20025;-72
2023/05/16 11:50:16;;;;;;;5.43;1.00;;;15.60;48.90;;;;;;5049114;28;20029;-74
2023/05/16 11:52:46;;;;;;;3.80;0.80;;;15.50;44.90;;;;;;5051723;28;20033;-73
2023/05/16 11:55:13;;;;;;;5.50;0.82;;;15.40;42.80;;;;;;5063983;28;20055;-76
2023/05/16 11:57:41;;;;;;;3.58;0.80;;;15.80;43.30;;;;;;5060071;28;20032;-73
2023/05/16 12:00:15;;;;;;;2.45;0.65;;;16.30;44.60;;;;;;5050982;28;20023;-73
2023/05/16 12:02:41;;;;;;;4.43;0.93;;;15.90;44.00;;;;;;5049554;28;20017;-76
2023/05/16 12:05:09;;;;;;;2.83;0.80;;;16.60;43.30;;;;;;5042596;28;20045;-73
2023/05/16 12:07:36;;;;;;;4.70;1.33;;;16.50;43.50;;;;;;5046004;28;20025;-75
2023/05/16 12:10:10;;;;;;;5.85;0.90;;;16.50;47.20;;;;;;5051813;28;20036;-74
2023/05/16 12:12:38;;;;;;;5.00;1.13;;;15.60;51.00;;;;;;5048490;28;20037;-74
2023/05/16 12:15:05;;;;;;;9.43;1.10;;;14.80;53.10;;;;;;5051191;28;20051;-73
2023/05/16 12:17:32;;;;;;;6.07;0.93;;;14.30;54.30;;;;;;5045591;28;20020;-73
2023/05/16 12:19:58;;;;;;;3.65;0.93;;;13.70;54.50;;;;;;5048122;28;20032;-73
2023/05/16 12:22:24;;;;;;;4.60;1.35;;;13.60;55.30;;;;;;5052315;28;20044;-73
2023/05/16 12:24:51;;;;;;;3.47;0.90;;;13.40;55.40;;;;;;5041030;28;20049;-73
2023/05/16 12:27:24;;;;;;;4.65;0.90;;;13.40;55.80;;;;;;5036379;28;20111;-73
2023/05/16 12:29:49;;;;;;;3.80;1.00;;;14.30;55.30;;;;;;5044080;28;20033;-74
2023/05/16 12:32:19;;;;;;;6.95;1.30;;;14.30;54.70;;;;;;5043203;28;20049;-73
2023/05/16 12:34:51;;;;;;;4.85;1.02;;;14.30;52.00;;;;;;5040834;28;20025;-74
2023/05/16 12:37:18;;;;;;;4.20;0.70;;;13.40;53.40;;;;;;5050286;28;20043;-73
2023/05/16 12:39:46;;;;;;;3.25;1.33;;;13.60;53.20;;;;;;5049361;28;20354;-73
2023/05/16 12:42:12;;;;;;;5.47;1.00;;;13.80;53.00;;;;;;5046249;28;20048;-74
2023/05/16 12:44:38;;;;;;;4.90;0.80;;;13.50;55.20;;;;;;5040124;28;20037;-74
2023/05/16 12:47:11;;;;;;;3.78;0.80;;;13.00;57.90;;;;;;5035839;28;20039;-74